Time,TemperatureF,DewpointF,PressureIn,WindDirection,WindDirectionDegrees,WindSpeedMPH,WindSpeedGustMPH,Humidity,HourlyPrecipIn,Conditions,Clouds,dailyrainin,SoftwareType,DateUTC
2013-01-16 00:02:00,21.7,9.0,30.68,West,271,6.0,20.0,58,0.00,,,0.00,weatherlink.com 1.10,2013-01-16 07:02:00,
2013-01-16 00:17:00,21.8,9.0,30.69,WSW,255,19.0,22.0,58,0.00,,,0.00,weatherlink.com 1.10,2013-01-16 07:17:00,
2013-01-16 00:32:00,21.9,9.0,30.69,West,271,15.0,23.0,58,0.00,,,0.00,weatherlink.com 1.10,2013-01-16 07:32:00,
2013-01-16 00:47:00,22.0,10.0,30.68,West,273,13.0,24.0,59,0.00,,,0.00,weatherlink.com 1.10,2013-01-16 07:47:00,
2013-01-16 01:02:00,22.2,10.0,30.68,WSW,246,8.0,22.0,59,0.00,,,0.00,weatherlink.com 1.10,2013-01-16 08:02:00,
2013-01-16 01:17:00,22.1,10.0,30.67,WSW,241,15.0,22.0,60,0.00,,,0.00,weatherlink.com 1.10,2013-01-16 08:17:00,
2013-01-16 01:32:00,22.2,11.0,30.66,WSW,252,3.0,22.0,62,0.00,,,0.00,weatherlink.com 1.10,2013-01-16 08:32:00,
2013-01-16 01:47:00,22.2,11.0,30.67,SW,217,12.0,23.0,62,0.00,,,0.00,weatherlink.com 1.10,2013-01-16 08:47:00,
2013-01-16 02:02:00,22.0,11.0,30.67,West,277,6.0,26.0,62,0.00,,,0.00,weatherlink.com 1.10,2013-01-16 09:02:00,
2013-01-16 02:17:00,22.1,10.0,30.67,WNW,296,11.0,26.0,61,0.00,,,0.00,weatherlink.com 1.10,2013-01-16 09:17:00,
2013-01-16 02:32:00,21.7,10.0,30.68,West,269,13.0,30.0,60,0.00,,,0.00,weatherlink.com 1.10,2013-01-16 09:32:00,
2013-01-16 02:47:00,21.1,9.0,30.68,WSW,248,11.0,32.0,60,0.00,,,0.00,weatherlink.com 1.10,2013-01-16 09:47:00,
2013-01-16 03:02:00,20.8,9.0,30.68,WSW,255,12.0,26.0,61,0.00,,,0.00,weatherlink.com 1.10,2013-01-16 10:02:00,
2013-01-16 03:17:00,20.9,9.0,30.66,WSW,244,11.0,24.0,61,0.00,,,0.00,weatherlink.com 1.10,2013-01-16 10:17:00,
2013-01-16 03:32:00,21.8,10.0,30.65,West,259,13.0,26.0,61,0.00,,,0.00,weatherlink.com 1.10,2013-01-16 10:32:00,
2013-01-16 03:47:00,22.4,11.0,30.64,WSW,238,5.0,26.0,61,0.00,,,0.00,weatherlink.com 1.10,2013-01-16 10:47:00,
2013-01-16 04:02:00,23.0,12.0,30.64,WSW,252,13.0,24.0,62,0.00,,,0.00,weatherlink.com 1.10,2013-01-16 11:02:00,
2013-01-16 04:17:00,23.6,13.0,30.63,West,267,7.0,23.0,63,0.00,,,0.00,weatherlink.com 1.10,2013-01-16 11:17:00,
2013-01-16 04:33:00,24.0,13.0,30.62,WSW,248,6.0,26.0,63,0.00,,,0.00,weatherlink.com 1.10,2013-01-16 11:33:00,
2013-01-16 04:48:00,24.3,14.0,30.61,West,261,9.0,21.0,64,0.00,,,0.00,weatherlink.com 1.10,2013-01-16 11:48:00,
2013-01-16 05:03:00,24.5,14.0,30.62,West,281,13.0,25.0,65,0.00,,,0.00,weatherlink.com 1.10,2013-01-16 12:03:00,
2013-01-16 05:18:00,24.5,15.0,30.61,SSW,192,9.0,27.0,66,0.00,,,0.00,weatherlink.com 1.10,2013-01-16 12:18:00,
2013-01-16 05:33:00,24.5,15.0,30.60,WNW,290,7.0,24.0,66,0.00,,,0.00,weatherlink.com 1.10,2013-01-16 12:33:00,
2013-01-16 05:48:00,25.1,16.0,30.60,WSW,246,7.0,20.0,67,0.00,,,0.00,weatherlink.com 1.10,2013-01-16 12:48:00,
2013-01-16 06:03:00,25.1,16.0,30.62,WSW,254,5.0,18.0,67,0.00,,,0.00,weatherlink.com 1.10,2013-01-16 13:03:00,
2013-01-16 06:18:00,25.0,16.0,30.61,WSW,249,14.0,20.0,68,0.00,,,0.00,weatherlink.com 1.10,2013-01-16 13:18:00,
2013-01-16 06:34:00,25.0,16.0,30.61,WSW,239,8.0,16.0,68,0.00,,,0.00,weatherlink.com 1.10,2013-01-16 13:34:00,
2013-01-16 06:49:00,24.8,16.0,30.61,West,275,9.0,20.0,68,0.00,,,0.00,weatherlink.com 1.10,2013-01-16 13:49:00,
2013-01-16 07:04:00,24.8,16.0,30.61,WSW,254,8.0,15.0,68,0.00,,,0.00,weatherlink.com 1.10,2013-01-16 14:04:00,
2013-01-16 07:19:00,24.8,16.0,30.61,WSW,253,7.0,17.0,68,0.00,,,0.00,weatherlink.com 1.10,2013-01-16 14:19:00,
2013-01-16 07:34:00,25.1,16.0,30.61,WSW,241,5.0,16.0,67,0.00,,,0.00,weatherlink.com 1.10,2013-01-16 14:34:00,
2013-01-16 07:49:00,25.5,16.0,30.60,WNW,282,5.0,24.0,67,0.00,,,0.00,weatherlink.com 1.10,2013-01-16 14:49:00,
2013-01-16 08:04:00,25.6,16.0,30.61,West,261,19.0,21.0,66,0.00,,,0.00,weatherlink.com 1.10,2013-01-16 15:04:00,
2013-01-16 08:19:00,26.5,16.0,30.62,WNW,285,16.0,23.0,64,0.00,,,0.00,weatherlink.com 1.10,2013-01-16 15:19:00,
2013-01-16 08:34:00,27.2,16.0,30.63,West,270,4.0,20.0,63,0.00,,,0.00,weatherlink.com 1.10,2013-01-16 15:34:00,
2013-01-16 08:49:00,27.7,16.0,30.64,WNW,283,16.0,25.0,62,0.00,,,0.00,weatherlink.com 1.10,2013-01-16 15:49:00,
2013-01-16 09:04:00,28.6,16.0,30.64,West,269,6.0,23.0,59,0.00,,,0.00,weatherlink.com 1.10,2013-01-16 16:04:00,
2013-01-16 09:19:00,29.5,16.0,30.63,West,273,8.0,20.0,57,0.00,,,0.00,weatherlink.com 1.10,2013-01-16 16:19:00,
2013-01-16 09:34:00,30.5,16.0,30.63,WNW,290,11.0,20.0,55,0.00,,,0.00,weatherlink.com 1.10,2013-01-16 16:34:00,
2013-01-16 09:49:00,31.6,16.0,30.62,West,280,10.0,21.0,53,0.00,,,0.00,weatherlink.com 1.10,2013-01-16 16:49:00,
2013-01-16 10:04:00,32.9,17.0,30.62,WSW,241,6.0,17.0,52,0.00,,,0.00,weatherlink.com 1.10,2013-01-16 17:04:00,
2013-01-16 10:19:00,34.7,17.0,30.62,West,270,7.0,21.0,49,0.00,,,0.00,weatherlink.com 1.10,2013-01-16 17:19:00,
2013-01-16 10:34:00,35.4,17.0,30.62,SSW,194,10.0,20.0,47,0.00,,,0.00,weatherlink.com 1.10,2013-01-16 17:34:00,
2013-01-16 10:49:00,35.6,17.0,30.61,West,262,11.0,22.0,47,0.00,,,0.00,weatherlink.com 1.10,2013-01-16 17:49:00,
2013-01-16 11:04:00,35.8,17.0,30.60,West,259,10.0,24.0,47,0.00,,,0.00,weatherlink.com 1.10,2013-01-16 18:04:00,
2013-01-16 11:19:00,35.9,17.0,30.60,WSW,256,17.0,22.0,47,0.00,,,0.00,weatherlink.com 1.10,2013-01-16 18:19:00,
2013-01-16 11:34:00,36.6,17.0,30.59,WSW,244,14.0,19.0,45,0.00,,,0.00,weatherlink.com 1.10,2013-01-16 18:34:00,
2013-01-16 11:49:00,36.9,17.0,30.58,WSW,254,4.0,22.0,44,0.00,,,0.00,weatherlink.com 1.10,2013-01-16 18:49:00,
2013-01-16 12:04:00,37.1,17.0,30.58,West,268,14.0,20.0,44,0.00,,,0.00,weatherlink.com 1.10,2013-01-16 19:04:00,
2013-01-16 12:19:00,37.2,17.0,30.57,SW,232,11.0,18.0,44,0.00,,,0.00,weatherlink.com 1.10,2013-01-16 19:19:00,
2013-01-16 12:34:00,37.1,18.0,30.56,West,261,11.0,17.0,46,0.01,,,0.01,weatherlink.com 1.10,2013-01-16 19:34:00,
2013-01-16 12:49:00,37.3,18.0,30.55,WNW,296,11.0,19.0,45,0.01,,,0.01,weatherlink.com 1.10,2013-01-16 19:49:00,
2013-01-16 13:04:00,37.6,17.0,30.55,West,281,9.0,19.0,44,0.01,,,0.01,weatherlink.com 1.10,2013-01-16 20:04:00,
2013-01-16 13:19:00,37.5,18.0,30.55,WSW,240,11.0,19.0,45,0.00,,,0.01,weatherlink.com 1.10,2013-01-16 20:19:00,
2013-01-16 13:34:00,37.1,18.0,30.55,West,270,10.0,16.0,46,0.00,,,0.01,weatherlink.com 1.10,2013-01-16 20:34:00,
2013-01-16 13:49:00,36.5,17.0,30.56,WNW,286,2.0,21.0,45,0.00,,,0.01,weatherlink.com 1.10,2013-01-16 20:49:00,
2013-01-16 14:04:00,36.4,17.0,30.56,West,277,9.0,18.0,46,0.00,,,0.01,weatherlink.com 1.10,2013-01-16 21:04:00,
2013-01-16 14:19:00,36.2,17.0,30.56,West,267,8.0,22.0,45,0.00,,,0.01,weatherlink.com 1.10,2013-01-16 21:19:00,
2013-01-16 14:34:00,36.2,17.0,30.55,WSW,239,9.0,17.0,46,0.00,,,0.01,weatherlink.com 1.10,2013-01-16 21:34:00,
2013-01-16 14:49:00,36.2,17.0,30.56,West,261,8.0,16.0,46,0.00,,,0.01,weatherlink.com 1.10,2013-01-16 21:49:00,
2013-01-16 15:04:00,36.1,16.0,30.56,West,272,12.0,17.0,45,0.00,,,0.01,weatherlink.com 1.10,2013-01-16 22:04:00,
2013-01-16 15:19:00,35.8,16.0,30.57,West,265,7.0,17.0,45,0.00,,,0.01,weatherlink.com 1.10,2013-01-16 22:19:00,
2013-01-16 15:34:00,35.8,16.0,30.57,WSW,242,9.0,16.0,45,0.00,,,0.01,weatherlink.com 1.10,2013-01-16 22:34:00,
2013-01-16 15:49:00,34.8,16.0,30.57,West,264,5.0,16.0,46,0.00,,,0.01,weatherlink.com 1.10,2013-01-16 22:49:00,
2013-01-16 16:04:00,33.7,16.0,30.58,WSW,242,6.0,17.0,48,0.00,,,0.01,weatherlink.com 1.10,2013-01-16 23:04:00,
2013-01-16 16:19:00,32.6,15.0,30.58,West,264,8.0,12.0,49,0.00,,,0.01,weatherlink.com 1.10,2013-01-16 23:19:00,
2013-01-16 16:35:00,31.8,15.0,30.59,WSW,257,4.0,13.0,51,0.00,,,0.01,weatherlink.com 1.10,2013-01-16 23:35:00,
2013-01-16 16:50:00,31.1,15.0,30.59,West,266,7.0,8.0,52,0.00,,,0.01,weatherlink.com 1.10,2013-01-16 23:50:00,
2013-01-16 17:05:00,30.3,15.0,30.59,West,263,6.0,10.0,53,0.00,,,0.01,weatherlink.com 1.10,2013-01-17 00:05:00,
2013-01-16 17:20:00,29.8,15.0,30.59,WSW,256,4.0,11.0,54,0.00,,,0.01,weatherlink.com 1.10,2013-01-17 00:20:00,
2013-01-16 17:35:00,29.5,15.0,30.60,WSW,253,4.0,10.0,55,0.00,,,0.01,weatherlink.com 1.10,2013-01-17 00:35:00,
2013-01-16 17:50:00,29.1,15.0,30.60,SW,233,9.0,9.0,55,0.00,,,0.01,weatherlink.com 1.10,2013-01-17 00:50:00,
2013-01-16 18:05:00,28.8,15.0,30.61,West,266,5.0,9.0,56,0.00,,,0.01,weatherlink.com 1.10,2013-01-17 01:05:00,
2013-01-16 18:20:00,28.5,15.0,30.60,West,270,4.0,6.0,57,0.00,,,0.01,weatherlink.com 1.10,2013-01-17 01:20:00,
2013-01-16 18:35:00,27.9,15.0,30.61,West,270,1.0,5.0,59,0.00,,,0.01,weatherlink.com 1.10,2013-01-17 01:35:00,
2013-01-16 18:50:00,27.2,14.0,30.61,West,270,4.0,6.0,59,0.00,,,0.01,weatherlink.com 1.10,2013-01-17 01:50:00,
2013-01-16 19:05:00,26.7,14.0,30.61,West,270,4.0,6.0,60,0.00,,,0.01,weatherlink.com 1.10,2013-01-17 02:05:00,
2013-01-16 19:20:00,26.2,14.0,30.61,West,270,3.0,3.0,61,0.00,,,0.01,weatherlink.com 1.10,2013-01-17 02:20:00,
2013-01-16 19:35:00,26.3,15.0,30.62,West,269,2.0,5.0,63,0.00,,,0.01,weatherlink.com 1.10,2013-01-17 02:35:00,
2013-01-16 20:05:00,26.9,15.0,30.61,SSW,207,4.0,7.0,62,0.00,,,0.01,weatherlink.com 1.10,2013-01-17 03:05:00,
2013-01-16 20:20:00,26.9,15.0,30.61,SW,228,5.0,8.0,62,0.00,,,0.01,weatherlink.com 1.10,2013-01-17 03:20:00,
2013-01-16 20:35:00,26.8,16.0,30.62,South,188,10.0,10.0,63,0.00,,,0.01,weatherlink.com 1.10,2013-01-17 03:35:00,
2013-01-16 20:50:00,26.8,16.0,30.62,SSW,196,4.0,10.0,63,0.00,,,0.01,weatherlink.com 1.10,2013-01-17 03:50:00,
2013-01-16 21:05:00,26.6,16.0,30.62,SW,231,5.0,8.0,64,0.00,,,0.01,weatherlink.com 1.10,2013-01-17 04:05:00,
2013-01-16 21:20:00,26.4,16.0,30.62,SSW,209,6.0,9.0,64,0.00,,,0.01,weatherlink.com 1.10,2013-01-17 04:20:00,
2013-01-16 21:35:00,26.3,16.0,30.62,South,169,4.0,8.0,65,0.00,,,0.01,weatherlink.com 1.10,2013-01-17 04:35:00,
2013-01-16 21:50:00,26.1,16.0,30.61,SSW,198,0.0,8.0,65,0.00,,,0.01,weatherlink.com 1.10,2013-01-17 04:50:00,
2013-01-16 22:05:00,25.6,15.0,30.61,SSW,198,1.0,4.0,65,0.00,,,0.01,weatherlink.com 1.10,2013-01-17 05:05:00,
2013-01-16 22:20:00,24.7,14.0,30.61,SSW,198,0.0,5.0,65,0.00,,,0.01,weatherlink.com 1.10,2013-01-17 05:20:00,
2013-01-16 22:35:00,24.1,14.0,30.61,SSW,198,3.0,4.0,65,0.00,,,0.01,weatherlink.com 1.10,2013-01-17 05:35:00,
2013-01-16 22:50:00,24.4,14.0,30.61,SW,223,8.0,14.0,64,0.00,,,0.01,weatherlink.com 1.10,2013-01-17 05:50:00,
2013-01-16 23:05:00,26.0,14.0,30.61,West,265,9.0,16.0,61,0.00,,,0.01,weatherlink.com 1.10,2013-01-17 06:05:00,
2013-01-16 23:20:00,26.9,14.0,30.62,West,271,12.0,17.0,58,0.00,,,0.01,weatherlink.com 1.10,2013-01-17 06:20:00,
2013-01-16 23:35:00,27.6,14.0,30.62,SW,226,10.0,15.0,57,0.00,,,0.01,weatherlink.com 1.10,2013-01-17 06:35:00,
2013-01-16 23:50:00,27.7,14.0,30.63,WSW,252,10.0,15.0,56,0.00,,,0.01,weatherlink.com 1.10,2013-01-17 06:50:00,